To NAV CANADA Home Page Login to a new session Search on AWWS site Feedback and Comments Disclaimer Vers la page française équivalente Tips FAQ What's new on the site To the Forecasts and Observations / NOTAM section To "File a Flight Plan" website Publications and other links Update of the User's profile FIC Telephone Numbers My Weather Data Folder Route Weather Data Regional Weather Data Local Weather Data To the Forecasts and Observations / NOTAM section
Request Generated 05/22/2015 at 12:56:14 UTC . Weather information available at that time is displayed.

METAR/TAF

CALGARY/CALGARY INTL/AB    

METAR CYYC 221200Z 00000KT 40SM FEW240 03/M02 A2998 RMK CI2 SLP163=
METAR CYYC 221100Z VRB02KT 15SM FEW240 04/M02 A2998 RMK CI1 SLP161=
METAR CYYC 221000Z 00000KT 15SM FEW240 05/M02 A2998 RMK CI1 CI TR
SLP160=

TAF CYYC 221138Z 2212/2312 VRB02KT P6SM FEW240
BECMG 2212/2214 14008KT
BECMG 2218/2220 11010KT
FM230600 09008KT P6SM SKC
BECMG 2306/2308 VRB03KT
RMK NXT FCST BY 221500Z=
Your time UTC time
Weather data provided by Environment Canada and NAV CANADA